sensor_id;sensor_type;location;lat;lon;timestamp;P1;durP1;ratioP1;P2;durP2;ratioP2
75814;SDS011;64451;45.574;14.224;2023-01-13T00:00:27;19.08;;;5.60;;
75814;SDS011;64451;45.574;14.224;2023-01-13T00:02:29;13.73;;;5.20;;
75814;SDS011;64451;45.574;14.224;2023-01-13T00:04:29;16.17;;;6.13;;
75814;SDS011;64451;45.574;14.224;2023-01-13T00:06:30;20.33;;;3.92;;
75814;SDS011;64451;45.574;14.224;2023-01-13T00:08:31;21.50;;;4.22;;
75814;SDS011;64451;45.574;14.224;2023-01-13T00:10:32;8.07;;;3.55;;
75814;SDS011;64451;45.574;14.224;2023-01-13T00:12:33;15.20;;;5.23;;
75814;SDS011;64451;45.574;14.224;2023-01-13T00:14:34;16.23;;;5.07;;
75814;SDS011;64451;45.574;14.224;2023-01-13T00:16:35;13.15;;;4.40;;
75814;SDS011;64451;45.574;14.224;2023-01-13T00:18:35;14.90;;;5.28;;
75814;SDS011;64451;45.574;14.224;2023-01-13T00:20:35;26.73;;;3.15;;
75814;SDS011;64451;45.574;14.224;2023-01-13T00:22:36;10.07;;;3.45;;
75814;SDS011;64451;45.574;14.224;2023-01-13T00:24:36;14.20;;;5.13;;
75814;SDS011;64451;45.574;14.224;2023-01-13T00:26:37;18.10;;;3.83;;
75814;SDS011;64451;45.574;14.224;2023-01-13T00:28:37;15.90;;;4.43;;
75814;SDS011;64451;45.574;14.224;2023-01-13T00:30:37;24.98;;;3.22;;
75814;SDS011;64451;45.574;14.224;2023-01-13T00:32:38;13.05;;;4.68;;
75814;SDS011;64451;45.574;14.224;2023-01-13T00:34:38;9.73;;;3.78;;
75814;SDS011;64451;45.574;14.224;2023-01-13T00:36:38;15.40;;;4.03;;
75814;SDS011;64451;45.574;14.224;2023-01-13T00:38:39;10.05;;;3.10;;
75814;SDS011;64451;45.574;14.224;2023-01-13T00:40:41;7.93;;;2.92;;
75814;SDS011;64451;45.574;14.224;2023-01-13T00:42:42;9.85;;;4.15;;
75814;SDS011;64451;45.574;14.224;2023-01-13T00:45:00;7.80;;;4.40;;
75814;SDS011;64451;45.574;14.224;2023-01-13T00:47:01;16.52;;;4.95;;
75814;SDS011;64451;45.574;14.224;2023-01-13T00:49:01;14.35;;;3.95;;
75814;SDS011;64451;45.574;14.224;2023-01-13T00:53:09;10.25;;;3.28;;
75814;SDS011;64451;45.574;14.224;2023-01-13T00:55:10;8.00;;;3.05;;
75814;SDS011;64451;45.574;14.224;2023-01-13T00:57:11;13.75;;;3.88;;
75814;SDS011;64451;45.574;14.224;2023-01-13T00:59:12;12.77;;;5.03;;
75814;SDS011;64451;45.574;14.224;2023-01-13T01:01:14;9.10;;;3.72;;
75814;SDS011;64451;45.574;14.224;2023-01-13T01:03:17;22.25;;;5.05;;
75814;SDS011;64451;45.574;14.224;2023-01-13T01:05:18;11.65;;;4.07;;
75814;SDS011;64451;45.574;14.224;2023-01-13T01:07:18;9.63;;;3.90;;
75814;SDS011;64451;45.574;14.224;2023-01-13T01:09:18;10.90;;;4.20;;
75814;SDS011;64451;45.574;14.224;2023-01-13T01:11:20;14.95;;;4.22;;
75814;SDS011;64451;45.574;14.224;2023-01-13T01:13:22;9.25;;;3.80;;
75814;SDS011;64451;45.574;14.224;2023-01-13T01:15:22;8.80;;;4.43;;
75814;SDS011;64451;45.574;14.224;2023-01-13T01:17:23;11.35;;;4.25;;
75814;SDS011;64451;45.574;14.224;2023-01-13T01:19:23;11.80;;;4.05;;
75814;SDS011;64451;45.574;14.224;2023-01-13T01:21:24;7.13;;;3.65;;
75814;SDS011;64451;45.574;14.224;2023-01-13T01:23:27;15.65;;;4.38;;
75814;SDS011;64451;45.574;14.224;2023-01-13T01:25:28;9.85;;;4.22;;
75814;SDS011;64451;45.574;14.224;2023-01-13T01:27:28;15.18;;;4.35;;
75814;SDS011;64451;45.574;14.224;2023-01-13T01:29:28;9.57;;;4.10;;
75814;SDS011;64451;45.574;14.224;2023-01-13T01:31:32;8.30;;;4.18;;
75814;SDS011;64451;45.574;14.224;2023-01-13T01:33:32;19.58;;;3.70;;
75814;SDS011;64451;45.574;14.224;2023-01-13T01:35:33;13.15;;;4.20;;
75814;SDS011;64451;45.574;14.224;2023-01-13T01:37:33;14.85;;;5.05;;
75814;SDS011;64451;45.574;14.224;2023-01-13T01:39:33;18.48;;;4.00;;
75814;SDS011;64451;45.574;14.224;2023-01-13T01:41:34;12.13;;;4.13;;
75814;SDS011;64451;45.574;14.224;2023-01-13T01:43:49;19.45;;;6.00;;
75814;SDS011;64451;45.574;14.224;2023-01-13T01:45:58;14.90;;;3.85;;
75814;SDS011;64451;45.574;14.224;2023-01-13T01:48:00;10.15;;;3.40;;
75814;SDS011;64451;45.574;14.224;2023-01-13T01:50:03;18.55;;;3.28;;
75814;SDS011;64451;45.574;14.224;2023-01-13T01:52:08;16.75;;;5.22;;
75814;SDS011;64451;45.574;14.224;2023-01-13T01:54:15;28.02;;;4.35;;
75814;SDS011;64451;45.574;14.224;2023-01-13T01:56:34;16.20;;;5.32;;
75814;SDS011;64451;45.574;14.224;2023-01-13T01:58:40;19.27;;;5.43;;
75814;SDS011;64451;45.574;14.224;2023-01-13T02:00:45;23.13;;;6.30;;
75814;SDS011;64451;45.574;14.224;2023-01-13T02:02:47;17.80;;;4.03;;
75814;SDS011;64451;45.574;14.224;2023-01-13T02:04:50;18.38;;;5.07;;
75814;SDS011;64451;45.574;14.224;2023-01-13T02:06:53;14.18;;;5.07;;
75814;SDS011;64451;45.574;14.224;2023-01-13T02:08:56;10.85;;;4.10;;
75814;SDS011;64451;45.574;14.224;2023-01-13T02:10:57;15.82;;;4.80;;
75814;SDS011;64451;45.574;14.224;2023-01-13T02:12:59;10.68;;;4.43;;
75814;SDS011;64451;45.574;14.224;2023-01-13T02:15:10;15.40;;;4.78;;
75814;SDS011;64451;45.574;14.224;2023-01-13T02:17:25;8.20;;;4.07;;
75814;SDS011;64451;45.574;14.224;2023-01-13T02:22:18;13.30;;;6.15;;
75814;SDS011;64451;45.574;14.224;2023-01-13T02:25:36;10.77;;;4.28;;
75814;SDS011;64451;45.574;14.224;2023-01-13T02:29:39;13.07;;;4.97;;
75814;SDS011;64451;45.574;14.224;2023-01-13T02:32:11;12.05;;;4.68;;
75814;SDS011;64451;45.574;14.224;2023-01-13T02:37:03;9.18;;;3.63;;
75814;SDS011;64451;45.574;14.224;2023-01-13T02:39:03;18.77;;;4.88;;
75814;SDS011;64451;45.574;14.224;2023-01-13T02:41:15;10.55;;;4.60;;
75814;SDS011;64451;45.574;14.224;2023-01-13T02:43:40;8.15;;;3.58;;
75814;SDS011;64451;45.574;14.224;2023-01-13T02:46:02;23.02;;;4.70;;
75814;SDS011;64451;45.574;14.224;2023-01-13T02:48:07;9.05;;;4.13;;
75814;SDS011;64451;45.574;14.224;2023-01-13T02:50:11;15.50;;;5.50;;
75814;SDS011;64451;45.574;14.224;2023-01-13T02:52:19;11.52;;;4.20;;
75814;SDS011;64451;45.574;14.224;2023-01-13T02:54:27;13.85;;;4.72;;
75814;SDS011;64451;45.574;14.224;2023-01-13T02:56:30;12.98;;;5.47;;
75814;SDS011;64451;45.574;14.224;2023-01-13T02:58:34;9.95;;;4.57;;
75814;SDS011;64451;45.574;14.224;2023-01-13T03:00:36;16.35;;;4.70;;
75814;SDS011;64451;45.574;14.224;2023-01-13T03:02:38;15.45;;;5.03;;
75814;SDS011;64451;45.574;14.224;2023-01-13T03:06:53;10.13;;;4.50;;
75814;SDS011;64451;45.574;14.224;2023-01-13T03:11:43;13.48;;;5.38;;
75814;SDS011;64451;45.574;14.224;2023-01-13T03:14:00;18.38;;;5.30;;
75814;SDS011;64451;45.574;14.224;2023-01-13T03:18:47;15.27;;;5.13;;
75814;SDS011;64451;45.574;14.224;2023-01-13T03:21:03;12.43;;;5.25;;
75814;SDS011;64451;45.574;14.224;2023-01-13T03:23:21;12.15;;;4.97;;
75814;SDS011;64451;45.574;14.224;2023-01-13T03:25:36;18.83;;;7.20;;
75814;SDS011;64451;45.574;14.224;2023-01-13T03:27:49;22.88;;;7.93;;
75814;SDS011;64451;45.574;14.224;2023-01-13T03:32:10;24.80;;;6.15;;
75814;SDS011;64451;45.574;14.224;2023-01-13T03:34:35;20.02;;;6.97;;
75814;SDS011;64451;45.574;14.224;2023-01-13T03:36:43;19.83;;;7.00;;
75814;SDS011;64451;45.574;14.224;2023-01-13T03:38:52;19.05;;;7.43;;
75814;SDS011;64451;45.574;14.224;2023-01-13T03:40:58;21.55;;;6.97;;
75814;SDS011;64451;45.574;14.224;2023-01-13T03:43:05;14.98;;;6.60;;
75814;SDS011;64451;45.574;14.224;2023-01-13T03:45:29;19.45;;;7.85;;
75814;SDS011;64451;45.574;14.224;2023-01-13T03:47:34;20.83;;;7.40;;
75814;SDS011;64451;45.574;14.224;2023-01-13T03:51:44;19.45;;;6.45;;
75814;SDS011;64451;45.574;14.224;2023-01-13T03:53:51;27.35;;;7.95;;
75814;SDS011;64451;45.574;14.224;2023-01-13T03:56:01;20.45;;;6.60;;
75814;SDS011;64451;45.574;14.224;2023-01-13T03:58:16;32.63;;;8.52;;
75814;SDS011;64451;45.574;14.224;2023-01-13T04:00:21;26.42;;;8.38;;
75814;SDS011;64451;45.574;14.224;2023-01-13T04:02:31;20.35;;;8.10;;
75814;SDS011;64451;45.574;14.224;2023-01-13T04:07:08;26.05;;;6.15;;
75814;SDS011;64451;45.574;14.224;2023-01-13T04:11:28;14.70;;;6.25;;
75814;SDS011;64451;45.574;14.224;2023-01-13T04:13:36;13.43;;;5.55;;
75814;SDS011;64451;45.574;14.224;2023-01-13T04:15:40;12.75;;;5.10;;
75814;SDS011;64451;45.574;14.224;2023-01-13T04:17:43;17.17;;;5.68;;
75814;SDS011;64451;45.574;14.224;2023-01-13T04:19:43;12.70;;;5.03;;
75814;SDS011;64451;45.574;14.224;2023-01-13T04:21:43;11.98;;;4.50;;
75814;SDS011;64451;45.574;14.224;2023-01-13T04:23:44;11.57;;;5.43;;
75814;SDS011;64451;45.574;14.224;2023-01-13T04:25:45;12.35;;;5.07;;
75814;SDS011;64451;45.574;14.224;2023-01-13T04:27:46;13.93;;;5.30;;
75814;SDS011;64451;45.574;14.224;2023-01-13T04:29:46;10.93;;;4.82;;
75814;SDS011;64451;45.574;14.224;2023-01-13T04:31:46;10.73;;;4.20;;
75814;SDS011;64451;45.574;14.224;2023-01-13T04:33:47;13.25;;;5.70;;
75814;SDS011;64451;45.574;14.224;2023-01-13T04:35:47;9.82;;;5.07;;
75814;SDS011;64451;45.574;14.224;2023-01-13T04:37:47;10.65;;;5.05;;
75814;SDS011;64451;45.574;14.224;2023-01-13T04:39:48;11.75;;;5.28;;
75814;SDS011;64451;45.574;14.224;2023-01-13T04:41:48;9.55;;;4.57;;
75814;SDS011;64451;45.574;14.224;2023-01-13T04:43:58;9.52;;;4.40;;
75814;SDS011;64451;45.574;14.224;2023-01-13T04:45:58;12.15;;;5.25;;
75814;SDS011;64451;45.574;14.224;2023-01-13T04:47:58;12.50;;;6.05;;
75814;SDS011;64451;45.574;14.224;2023-01-13T04:49:59;19.58;;;6.65;;
75814;SDS011;64451;45.574;14.224;2023-01-13T04:51:59;20.20;;;6.47;;
75814;SDS011;64451;45.574;14.224;2023-01-13T04:54:02;13.95;;;6.05;;
75814;SDS011;64451;45.574;14.224;2023-01-13T04:56:03;24.80;;;6.82;;
75814;SDS011;64451;45.574;14.224;2023-01-13T04:58:04;14.90;;;5.78;;
75814;SDS011;64451;45.574;14.224;2023-01-13T05:00:05;17.88;;;7.45;;
75814;SDS011;64451;45.574;14.224;2023-01-13T05:02:09;20.90;;;6.13;;
75814;SDS011;64451;45.574;14.224;2023-01-13T05:04:13;23.48;;;8.10;;
75814;SDS011;64451;45.574;14.224;2023-01-13T05:06:14;20.10;;;6.28;;
75814;SDS011;64451;45.574;14.224;2023-01-13T05:08:15;11.00;;;5.30;;
75814;SDS011;64451;45.574;14.224;2023-01-13T05:10:15;13.52;;;5.57;;
75814;SDS011;64451;45.574;14.224;2023-01-13T05:12:16;19.25;;;7.28;;
75814;SDS011;64451;45.574;14.224;2023-01-13T05:14:34;8.98;;;4.07;;
75814;SDS011;64451;45.574;14.224;2023-01-13T05:16:54;11.88;;;3.90;;
75814;SDS011;64451;45.574;14.224;2023-01-13T05:19:02;11.80;;;4.63;;
75814;SDS011;64451;45.574;14.224;2023-01-13T05:21:02;9.32;;;5.15;;
75814;SDS011;64451;45.574;14.224;2023-01-13T05:23:02;10.73;;;4.38;;
75814;SDS011;64451;45.574;14.224;2023-01-13T05:25:21;12.07;;;4.15;;
75814;SDS011;64451;45.574;14.224;2023-01-13T05:27:24;8.48;;;4.38;;
75814;SDS011;64451;45.574;14.224;2023-01-13T05:29:24;17.98;;;5.30;;
75814;SDS011;64451;45.574;14.224;2023-01-13T05:31:24;10.95;;;4.82;;
75814;SDS011;64451;45.574;14.224;2023-01-13T05:33:25;8.40;;;5.00;;
75814;SDS011;64451;45.574;14.224;2023-01-13T05:35:25;12.25;;;7.03;;
75814;SDS011;64451;45.574;14.224;2023-01-13T05:37:25;16.52;;;6.65;;
75814;SDS011;64451;45.574;14.224;2023-01-13T05:39:26;14.75;;;6.70;;
75814;SDS011;64451;45.574;14.224;2023-01-13T05:41:49;12.38;;;6.00;;
75814;SDS011;64451;45.574;14.224;2023-01-13T05:44:08;13.38;;;5.90;;
75814;SDS011;64451;45.574;14.224;2023-01-13T05:46:09;10.75;;;4.65;;
75814;SDS011;64451;45.574;14.224;2023-01-13T05:48:10;9.43;;;4.07;;
75814;SDS011;64451;45.574;14.224;2023-01-13T05:50:11;8.02;;;4.28;;
75814;SDS011;64451;45.574;14.224;2023-01-13T05:52:11;11.00;;;4.35;;
75814;SDS011;64451;45.574;14.224;2023-01-13T05:54:12;10.23;;;5.15;;
75814;SDS011;64451;45.574;14.224;2023-01-13T05:56:12;19.05;;;6.38;;
75814;SDS011;64451;45.574;14.224;2023-01-13T05:58:13;17.38;;;6.00;;
75814;SDS011;64451;45.574;14.224;2023-01-13T06:00:15;12.00;;;5.60;;
75814;SDS011;64451;45.574;14.224;2023-01-13T06:02:16;13.40;;;6.15;;
75814;SDS011;64451;45.574;14.224;2023-01-13T06:04:17;21.88;;;7.53;;
75814;SDS011;64451;45.574;14.224;2023-01-13T06:06:17;18.30;;;7.15;;
75814;SDS011;64451;45.574;14.224;2023-01-13T06:08:17;12.40;;;6.90;;
75814;SDS011;64451;45.574;14.224;2023-01-13T06:10:18;18.95;;;5.90;;
75814;SDS011;64451;45.574;14.224;2023-01-13T06:12:18;17.90;;;6.90;;
75814;SDS011;64451;45.574;14.224;2023-01-13T06:14:18;14.85;;;5.68;;
75814;SDS011;64451;45.574;14.224;2023-01-13T06:16:19;12.65;;;5.38;;
75814;SDS011;64451;45.574;14.224;2023-01-13T06:18:19;11.95;;;5.15;;
75814;SDS011;64451;45.574;14.224;2023-01-13T06:20:19;13.00;;;5.10;;
75814;SDS011;64451;45.574;14.224;2023-01-13T06:22:24;10.10;;;4.97;;
75814;SDS011;64451;45.574;14.224;2023-01-13T06:24:27;13.82;;;5.43;;
75814;SDS011;64451;45.574;14.224;2023-01-13T06:26:28;15.90;;;4.53;;
75814;SDS011;64451;45.574;14.224;2023-01-13T06:28:33;9.98;;;4.07;;
75814;SDS011;64451;45.574;14.224;2023-01-13T06:30:35;10.63;;;4.90;;
75814;SDS011;64451;45.574;14.224;2023-01-13T06:32:43;12.43;;;4.97;;
75814;SDS011;64451;45.574;14.224;2023-01-13T06:34:49;10.48;;;4.95;;
75814;SDS011;64451;45.574;14.224;2023-01-13T06:36:54;12.73;;;5.10;;
75814;SDS011;64451;45.574;14.224;2023-01-13T06:38:55;13.82;;;4.78;;
75814;SDS011;64451;45.574;14.224;2023-01-13T06:40:59;10.68;;;4.57;;
75814;SDS011;64451;45.574;14.224;2023-01-13T06:43:00;7.68;;;4.03;;
75814;SDS011;64451;45.574;14.224;2023-01-13T06:45:15;10.07;;;4.60;;
75814;SDS011;64451;45.574;14.224;2023-01-13T06:47:16;11.48;;;4.57;;
75814;SDS011;64451;45.574;14.224;2023-01-13T06:49:17;11.63;;;4.78;;
75814;SDS011;64451;45.574;14.224;2023-01-13T06:51:18;10.02;;;4.70;;
75814;SDS011;64451;45.574;14.224;2023-01-13T06:53:18;9.10;;;3.95;;
75814;SDS011;64451;45.574;14.224;2023-01-13T06:55:19;9.95;;;4.72;;
75814;SDS011;64451;45.574;14.224;2023-01-13T06:57:19;9.93;;;5.22;;
75814;SDS011;64451;45.574;14.224;2023-01-13T06:59:20;11.35;;;4.47;;
75814;SDS011;64451;45.574;14.224;2023-01-13T07:01:21;10.40;;;4.10;;
75814;SDS011;64451;45.574;14.224;2023-01-13T07:03:21;9.13;;;4.43;;
75814;SDS011;64451;45.574;14.224;2023-01-13T07:05:22;14.50;;;6.32;;
75814;SDS011;64451;45.574;14.224;2023-01-13T07:07:22;12.38;;;5.32;;
75814;SDS011;64451;45.574;14.224;2023-01-13T07:09:22;12.30;;;5.60;;
75814;SDS011;64451;45.574;14.224;2023-01-13T07:11:23;16.10;;;6.75;;
75814;SDS011;64451;45.574;14.224;2023-01-13T07:13:23;11.38;;;5.30;;
75814;SDS011;64451;45.574;14.224;2023-01-13T07:15:51;11.25;;;5.22;;
75814;SDS011;64451;45.574;14.224;2023-01-13T07:17:52;12.57;;;5.35;;
75814;SDS011;64451;45.574;14.224;2023-01-13T07:19:52;10.95;;;4.72;;
75814;SDS011;64451;45.574;14.224;2023-01-13T07:21:52;9.88;;;4.60;;
75814;SDS011;64451;45.574;14.224;2023-01-13T07:23:53;8.80;;;4.45;;
75814;SDS011;64451;45.574;14.224;2023-01-13T07:25:54;10.05;;;4.20;;
75814;SDS011;64451;45.574;14.224;2023-01-13T07:27:57;8.63;;;3.92;;
75814;SDS011;64451;45.574;14.224;2023-01-13T07:29:58;13.50;;;5.13;;
75814;SDS011;64451;45.574;14.224;2023-01-13T07:31:59;11.25;;;5.20;;
75814;SDS011;64451;45.574;14.224;2023-01-13T07:34:00;9.07;;;4.68;;
75814;SDS011;64451;45.574;14.224;2023-01-13T07:36:01;11.27;;;5.22;;
75814;SDS011;64451;45.574;14.224;2023-01-13T07:38:03;10.13;;;5.75;;
75814;SDS011;64451;45.574;14.224;2023-01-13T07:40:04;11.93;;;4.35;;
75814;SDS011;64451;45.574;14.224;2023-01-13T07:42:05;9.00;;;4.38;;
75814;SDS011;64451;45.574;14.224;2023-01-13T07:44:23;9.57;;;4.35;;
75814;SDS011;64451;45.574;14.224;2023-01-13T07:46:24;8.55;;;3.95;;
75814;SDS011;64451;45.574;14.224;2023-01-13T07:48:24;7.60;;;3.50;;
75814;SDS011;64451;45.574;14.224;2023-01-13T07:50:26;11.00;;;4.38;;
75814;SDS011;64451;45.574;14.224;2023-01-13T07:52:26;6.22;;;3.40;;
75814;SDS011;64451;45.574;14.224;2023-01-13T07:54:26;10.30;;;3.92;;
75814;SDS011;64451;45.574;14.224;2023-01-13T07:56:27;13.60;;;5.03;;
75814;SDS011;64451;45.574;14.224;2023-01-13T07:58:27;16.52;;;5.07;;
75814;SDS011;64451;45.574;14.224;2023-01-13T08:00:28;10.98;;;4.10;;
75814;SDS011;64451;45.574;14.224;2023-01-13T08:02:29;8.95;;;3.97;;
75814;SDS011;64451;45.574;14.224;2023-01-13T08:04:29;8.00;;;3.90;;
75814;SDS011;64451;45.574;14.224;2023-01-13T08:06:29;16.52;;;6.82;;
75814;SDS011;64451;45.574;14.224;2023-01-13T08:08:30;12.45;;;6.20;;
75814;SDS011;64451;45.574;14.224;2023-01-13T08:10:30;32.80;;;7.45;;
75814;SDS011;64451;45.574;14.224;2023-01-13T08:12:31;13.38;;;4.93;;
75814;SDS011;64451;45.574;14.224;2023-01-13T08:14:50;20.00;;;9.32;;
75814;SDS011;64451;45.574;14.224;2023-01-13T08:16:51;19.23;;;6.72;;
75814;SDS011;64451;45.574;14.224;2023-01-13T08:18:52;13.43;;;5.18;;
75814;SDS011;64451;45.574;14.224;2023-01-13T08:20:52;17.15;;;5.40;;
75814;SDS011;64451;45.574;14.224;2023-01-13T08:22:56;12.48;;;5.38;;
75814;SDS011;64451;45.574;14.224;2023-01-13T08:24:57;13.77;;;6.07;;
75814;SDS011;64451;45.574;14.224;2023-01-13T08:26:58;20.58;;;6.97;;
75814;SDS011;64451;45.574;14.224;2023-01-13T08:28:58;16.05;;;6.47;;
75814;SDS011;64451;45.574;14.224;2023-01-13T08:31:02;15.50;;;6.47;;
75814;SDS011;64451;45.574;14.224;2023-01-13T08:33:08;23.63;;;10.32;;
75814;SDS011;64451;45.574;14.224;2023-01-13T08:35:09;17.17;;;7.75;;
75814;SDS011;64451;45.574;14.224;2023-01-13T08:37:09;22.10;;;10.02;;
75814;SDS011;64451;45.574;14.224;2023-01-13T08:39:10;16.08;;;7.63;;
75814;SDS011;64451;45.574;14.224;2023-01-13T08:41:11;18.45;;;8.88;;
75814;SDS011;64451;45.574;14.224;2023-01-13T08:43:13;16.67;;;7.43;;
75814;SDS011;64451;45.574;14.224;2023-01-13T08:45:14;16.45;;;6.15;;
75814;SDS011;64451;45.574;14.224;2023-01-13T08:47:14;12.80;;;6.47;;
75814;SDS011;64451;45.574;14.224;2023-01-13T08:49:15;13.57;;;6.75;;
75814;SDS011;64451;45.574;14.224;2023-01-13T08:51:16;17.00;;;6.68;;
75814;SDS011;64451;45.574;14.224;2023-01-13T08:53:16;13.40;;;6.50;;
75814;SDS011;64451;45.574;14.224;2023-01-13T08:55:16;14.02;;;6.38;;
75814;SDS011;64451;45.574;14.224;2023-01-13T08:57:17;13.90;;;6.57;;
75814;SDS011;64451;45.574;14.224;2023-01-13T08:59:20;11.95;;;5.63;;
75814;SDS011;64451;45.574;14.224;2023-01-13T09:01:21;15.43;;;6.13;;
75814;SDS011;64451;45.574;14.224;2023-01-13T09:03:22;11.75;;;6.18;;
75814;SDS011;64451;45.574;14.224;2023-01-13T09:05:22;14.27;;;6.97;;
75814;SDS011;64451;45.574;14.224;2023-01-13T09:07:22;15.27;;;6.53;;
75814;SDS011;64451;45.574;14.224;2023-01-13T09:09:23;22.05;;;6.07;;
75814;SDS011;64451;45.574;14.224;2023-01-13T09:11:28;13.23;;;5.93;;
75814;SDS011;64451;45.574;14.224;2023-01-13T09:13:48;16.40;;;5.60;;
75814;SDS011;64451;45.574;14.224;2023-01-13T09:15:49;15.88;;;6.63;;
75814;SDS011;64451;45.574;14.224;2023-01-13T09:17:51;13.43;;;5.72;;
75814;SDS011;64451;45.574;14.224;2023-01-13T09:19:51;11.32;;;6.28;;
75814;SDS011;64451;45.574;14.224;2023-01-13T09:21:52;12.07;;;6.35;;
75814;SDS011;64451;45.574;14.224;2023-01-13T09:23:53;21.07;;;6.63;;
75814;SDS011;64451;45.574;14.224;2023-01-13T09:25:54;16.13;;;6.68;;
75814;SDS011;64451;45.574;14.224;2023-01-13T09:27:54;13.77;;;6.70;;
75814;SDS011;64451;45.574;14.224;2023-01-13T09:29:55;14.07;;;6.28;;
75814;SDS011;64451;45.574;14.224;2023-01-13T09:31:56;15.65;;;6.28;;
75814;SDS011;64451;45.574;14.224;2023-01-13T09:33:57;13.63;;;6.70;;
75814;SDS011;64451;45.574;14.224;2023-01-13T09:36:15;17.05;;;5.80;;
75814;SDS011;64451;45.574;14.224;2023-01-13T09:38:16;21.60;;;11.05;;
75814;SDS011;64451;45.574;14.224;2023-01-13T09:40:17;30.55;;;9.77;;
75814;SDS011;64451;45.574;14.224;2023-01-13T09:45:23;14.25;;;6.28;;
75814;SDS011;64451;45.574;14.224;2023-01-13T09:48:10;34.90;;;10.70;;
75814;SDS011;64451;45.574;14.224;2023-01-13T09:50:02;45.42;;;11.50;;
75814;SDS011;64451;45.574;14.224;2023-01-13T09:52:23;16.08;;;5.55;;
75814;SDS011;64451;45.574;14.224;2023-01-13T09:58:27;9.18;;;4.40;;
75814;SDS011;64451;45.574;14.224;2023-01-13T10:00:31;12.02;;;4.75;;
75814;SDS011;64451;45.574;14.224;2023-01-13T10:02:50;10.90;;;5.18;;
75814;SDS011;64451;45.574;14.224;2023-01-13T10:05:05;9.40;;;4.03;;
75814;SDS011;64451;45.574;14.224;2023-01-13T10:07:11;10.48;;;4.90;;
75814;SDS011;64451;45.574;14.224;2023-01-13T10:09:17;9.70;;;4.28;;
75814;SDS011;64451;45.574;14.224;2023-01-13T10:11:23;8.98;;;4.72;;
75814;SDS011;64451;45.574;14.224;2023-01-13T10:13:48;10.10;;;4.63;;
75814;SDS011;64451;45.574;14.224;2023-01-13T10:18:24;10.40;;;4.88;;
75814;SDS011;64451;45.574;14.224;2023-01-13T10:20:34;36.28;;;12.30;;
75814;SDS011;64451;45.574;14.224;2023-01-13T10:28:04;22.00;;;7.05;;
75814;SDS011;64451;45.574;14.224;2023-01-13T10:30:16;16.67;;;6.60;;
75814;SDS011;64451;45.574;14.224;2023-01-13T10:32:20;17.52;;;6.15;;
75814;SDS011;64451;45.574;14.224;2023-01-13T10:34:21;17.08;;;6.55;;
75814;SDS011;64451;45.574;14.224;2023-01-13T10:36:22;21.17;;;7.30;;
75814;SDS011;64451;45.574;14.224;2023-01-13T10:38:27;25.15;;;8.95;;
75814;SDS011;64451;45.574;14.224;2023-01-13T10:40:28;18.48;;;6.38;;
75814;SDS011;64451;45.574;14.224;2023-01-13T10:42:28;8.80;;;4.85;;
75814;SDS011;64451;45.574;14.224;2023-01-13T10:44:29;12.80;;;5.30;;
75814;SDS011;64451;45.574;14.224;2023-01-13T10:46:31;11.02;;;5.13;;
75814;SDS011;64451;45.574;14.224;2023-01-13T10:48:34;15.25;;;5.47;;
75814;SDS011;64451;45.574;14.224;2023-01-13T10:50:35;16.70;;;5.28;;
75814;SDS011;64451;45.574;14.224;2023-01-13T10:52:37;21.08;;;5.70;;
75814;SDS011;64451;45.574;14.224;2023-01-13T10:54:46;11.18;;;5.35;;
75814;SDS011;64451;45.574;14.224;2023-01-13T11:01:23;11.93;;;5.90;;
75814;SDS011;64451;45.574;14.224;2023-01-13T11:03:25;14.10;;;4.75;;
75814;SDS011;64451;45.574;14.224;2023-01-13T11:05:35;16.52;;;5.25;;
75814;SDS011;64451;45.574;14.224;2023-01-13T11:07:37;11.15;;;5.35;;
75814;SDS011;64451;45.574;14.224;2023-01-13T11:09:39;13.10;;;5.75;;
75814;SDS011;64451;45.574;14.224;2023-01-13T11:11:43;12.00;;;6.18;;
75814;SDS011;64451;45.574;14.224;2023-01-13T11:13:43;15.60;;;6.95;;
75814;SDS011;64451;45.574;14.224;2023-01-13T11:16:14;19.08;;;7.22;;
75814;SDS011;64451;45.574;14.224;2023-01-13T11:18:18;16.80;;;7.57;;
75814;SDS011;64451;45.574;14.224;2023-01-13T11:20:26;16.05;;;6.60;;
75814;SDS011;64451;45.574;14.224;2023-01-13T11:22:33;18.42;;;7.55;;
75814;SDS011;64451;45.574;14.224;2023-01-13T11:29:17;18.25;;;7.57;;
75814;SDS011;64451;45.574;14.224;2023-01-13T11:31:26;16.90;;;7.60;;
75814;SDS011;64451;45.574;14.224;2023-01-13T11:35:40;19.98;;;7.70;;
75814;SDS011;64451;45.574;14.224;2023-01-13T11:37:42;29.58;;;13.43;;
75814;SDS011;64451;45.574;14.224;2023-01-13T11:42:19;29.92;;;12.95;;
75814;SDS011;64451;45.574;14.224;2023-01-13T11:44:37;23.60;;;11.43;;
75814;SDS011;64451;45.574;14.224;2023-01-13T11:47:00;17.60;;;7.90;;
75814;SDS011;64451;45.574;14.224;2023-01-13T11:49:00;22.95;;;11.80;;
75814;SDS011;64451;45.574;14.224;2023-01-13T11:51:04;40.03;;;18.13;;
75814;SDS011;64451;45.574;14.224;2023-01-13T11:55:37;18.95;;;8.57;;
75814;SDS011;64451;45.574;14.224;2023-01-13T12:03:08;14.38;;;7.57;;
75814;SDS011;64451;45.574;14.224;2023-01-13T12:05:14;11.25;;;4.45;;
75814;SDS011;64451;45.574;14.224;2023-01-13T12:07:23;6.32;;;2.83;;
75814;SDS011;64451;45.574;14.224;2023-01-13T12:11:49;8.02;;;2.33;;
75814;SDS011;64451;45.574;14.224;2023-01-13T12:14:24;2.92;;;1.45;;
75814;SDS011;64451;45.574;14.224;2023-01-13T12:16:41;0.60;;;0.57;;
75814;SDS011;64451;45.574;14.224;2023-01-13T12:18:50;3.38;;;1.17;;
75814;SDS011;64451;45.574;14.224;2023-01-13T12:21:04;3.00;;;1.30;;
75814;SDS011;64451;45.574;14.224;2023-01-13T12:23:32;4.68;;;1.98;;
75814;SDS011;64451;45.574;14.224;2023-01-13T12:25:37;1.77;;;0.80;;
75814;SDS011;64451;45.574;14.224;2023-01-13T12:30:02;1.00;;;0.60;;
75814;SDS011;64451;45.574;14.224;2023-01-13T12:32:17;1.88;;;0.77;;
75814;SDS011;64451;45.574;14.224;2023-01-13T12:38:47;1.52;;;0.80;;
75814;SDS011;64451;45.574;14.224;2023-01-13T12:43:20;1.40;;;0.50;;
75814;SDS011;64451;45.574;14.224;2023-01-13T12:45:41;1.20;;;0.50;;
75814;SDS011;64451;45.574;14.224;2023-01-13T12:47:42;1.73;;;0.60;;
75814;SDS011;64451;45.574;14.224;2023-01-13T12:49:45;2.58;;;0.50;;
75814;SDS011;64451;45.574;14.224;2023-01-13T12:53:55;1.55;;;0.50;;
75814;SDS011;64451;45.574;14.224;2023-01-13T12:56:18;3.83;;;0.80;;
75814;SDS011;64451;45.574;14.224;2023-01-13T12:58:31;1.38;;;0.60;;
75814;SDS011;64451;45.574;14.224;2023-01-13T13:07:16;1.40;;;0.50;;
75814;SDS011;64451;45.574;14.224;2023-01-13T13:09:27;0.95;;;0.60;;
75814;SDS011;64451;45.574;14.224;2023-01-13T13:11:41;2.13;;;0.68;;
75814;SDS011;64451;45.574;14.224;2023-01-13T13:14:02;1.50;;;0.50;;
75814;SDS011;64451;45.574;14.224;2023-01-13T13:18:24;1.67;;;0.90;;
75814;SDS011;64451;45.574;14.224;2023-01-13T13:22:53;2.75;;;0.73;;
75814;SDS011;64451;45.574;14.224;2023-01-13T13:26:55;4.20;;;0.85;;
75814;SDS011;64451;45.574;14.224;2023-01-13T13:36:48;3.17;;;1.17;;
75814;SDS011;64451;45.574;14.224;2023-01-13T13:39:17;2.22;;;0.75;;
75814;SDS011;64451;45.574;14.224;2023-01-13T13:41:41;1.67;;;0.85;;
75814;SDS011;64451;45.574;14.224;2023-01-13T13:44:06;3.05;;;1.10;;
75814;SDS011;64451;45.574;14.224;2023-01-13T13:46:46;5.65;;;1.48;;
75814;SDS011;64451;45.574;14.224;2023-01-13T13:48:51;4.13;;;1.00;;
75814;SDS011;64451;45.574;14.224;2023-01-13T13:50:57;3.03;;;1.00;;